sensor_id;sensor_type;location;lat;lon;timestamp;temperature;humidity
40123;DHT22;25832;45.490;4.912;2022-07-29T00:01:46;20.50;77.30
40123;DHT22;25832;45.490;4.912;2022-07-29T00:04:12;20.50;76.20
40123;DHT22;25832;45.490;4.912;2022-07-29T00:06:37;20.60;76.30
40123;DHT22;25832;45.490;4.912;2022-07-29T00:09:03;20.60;75.30
40123;DHT22;25832;45.490;4.912;2022-07-29T00:11:29;20.70;76.40
40123;DHT22;25832;45.490;4.912;2022-07-29T00:13:54;20.70;76.50
40123;DHT22;25832;45.490;4.912;2022-07-29T00:16:20;20.70;77.50
40123;DHT22;25832;45.490;4.912;2022-07-29T00:18:46;20.60;77.50
40123;DHT22;25832;45.490;4.912;2022-07-29T00:21:12;20.50;77.90
40123;DHT22;25832;45.490;4.912;2022-07-29T00:23:37;20.30;78.50
40123;DHT22;25832;45.490;4.912;2022-07-29T00:26:03;20.10;79.50
40123;DHT22;25832;45.490;4.912;2022-07-29T00:28:29;19.90;80.00
40123;DHT22;25832;45.490;4.912;2022-07-29T00:30:54;19.70;79.70
40123;DHT22;25832;45.490;4.912;2022-07-29T00:33:20;19.60;79.70
40123;DHT22;25832;45.490;4.912;2022-07-29T00:35:47;19.50;80.50
40123;DHT22;25832;45.490;4.912;2022-07-29T00:38:20;19.50;80.40
40123;DHT22;25832;45.490;4.912;2022-07-29T00:40:46;19.40;81.30
40123;DHT22;25832;45.490;4.912;2022-07-29T00:43:13;19.40;81.30
40123;DHT22;25832;45.490;4.912;2022-07-29T00:45:40;19.40;81.90
40123;DHT22;25832;45.490;4.912;2022-07-29T00:48:06;19.40;82.50
40123;DHT22;25832;45.490;4.912;2022-07-29T00:50:34;19.40;81.60
40123;DHT22;25832;45.490;4.912;2022-07-29T00:53:01;19.50;81.30
40123;DHT22;25832;45.490;4.912;2022-07-29T00:55:27;19.50;81.10
40123;DHT22;25832;45.490;4.912;2022-07-29T00:57:55;19.60;81.50
40123;DHT22;25832;45.490;4.912;2022-07-29T01:00:23;19.50;82.90
40123;DHT22;25832;45.490;4.912;2022-07-29T01:02:50;19.40;82.00
40123;DHT22;25832;45.490;4.912;2022-07-29T01:05:21;19.30;82.60
40123;DHT22;25832;45.490;4.912;2022-07-29T01:07:49;19.30;82.60
40123;DHT22;25832;45.490;4.912;2022-07-29T01:10:16;19.10;82.80
40123;DHT22;25832;45.490;4.912;2022-07-29T01:12:44;19.00;83.50
40123;DHT22;25832;45.490;4.912;2022-07-29T01:15:12;19.00;84.10
40123;DHT22;25832;45.490;4.912;2022-07-29T01:17:43;18.80;84.50
40123;DHT22;25832;45.490;4.912;2022-07-29T01:20:39;18.80;85.10
40123;DHT22;25832;45.490;4.912;2022-07-29T01:26:28;18.80;85.50
40123;DHT22;25832;45.490;4.912;2022-07-29T01:31:48;18.70;86.30
40123;DHT22;25832;45.490;4.912;2022-07-29T01:34:27;18.60;87.10
40123;DHT22;25832;45.490;4.912;2022-07-29T01:37:08;18.60;87.30
40123;DHT22;25832;45.490;4.912;2022-07-29T01:39:38;18.60;87.80
40123;DHT22;25832;45.490;4.912;2022-07-29T01:45:18;18.60;87.60
40123;DHT22;25832;45.490;4.912;2022-07-29T01:48:02;18.60;87.80
40123;DHT22;25832;45.490;4.912;2022-07-29T01:50:44;18.60;88.90
40123;DHT22;25832;45.490;4.912;2022-07-29T01:53:12;18.70;88.10
40123;DHT22;25832;45.490;4.912;2022-07-29T01:55:42;18.70;88.30
40123;DHT22;25832;45.490;4.912;2022-07-29T01:58:11;18.70;88.20
40123;DHT22;25832;45.490;4.912;2022-07-29T02:00:38;18.70;89.40
40123;DHT22;25832;45.490;4.912;2022-07-29T02:03:09;18.80;89.20
40123;DHT22;25832;45.490;4.912;2022-07-29T02:05:38;18.80;89.30
40123;DHT22;25832;45.490;4.912;2022-07-29T02:08:05;18.70;89.80
40123;DHT22;25832;45.490;4.912;2022-07-29T02:10:33;18.70;90.00
40123;DHT22;25832;45.490;4.912;2022-07-29T02:13:02;18.70;90.10
40123;DHT22;25832;45.490;4.912;2022-07-29T02:15:32;18.60;90.20
40123;DHT22;25832;45.490;4.912;2022-07-29T02:18:02;18.60;90.00
40123;DHT22;25832;45.490;4.912;2022-07-29T02:20:30;18.50;90.30
40123;DHT22;25832;45.490;4.912;2022-07-29T02:22:59;18.50;90.50
40123;DHT22;25832;45.490;4.912;2022-07-29T02:25:26;18.40;90.50
40123;DHT22;25832;45.490;4.912;2022-07-29T02:27:53;18.40;90.80
40123;DHT22;25832;45.490;4.912;2022-07-29T02:30:21;18.30;90.90
40123;DHT22;25832;45.490;4.912;2022-07-29T02:32:48;18.40;91.10
40123;DHT22;25832;45.490;4.912;2022-07-29T02:35:16;18.40;91.20
40123;DHT22;25832;45.490;4.912;2022-07-29T02:37:44;18.30;91.10
40123;DHT22;25832;45.490;4.912;2022-07-29T02:40:32;18.30;91.20
40123;DHT22;25832;45.490;4.912;2022-07-29T02:42:59;18.30;91.30
40123;DHT22;25832;45.490;4.912;2022-07-29T02:45:26;18.30;91.60
40123;DHT22;25832;45.490;4.912;2022-07-29T02:47:53;18.40;91.70
40123;DHT22;25832;45.490;4.912;2022-07-29T02:50:29;18.40;91.60
40123;DHT22;25832;45.490;4.912;2022-07-29T02:53:02;18.40;92.20
40123;DHT22;25832;45.490;4.912;2022-07-29T02:55:59;18.40;92.10
40123;DHT22;25832;45.490;4.912;2022-07-29T02:58:30;18.40;92.10
40123;DHT22;25832;45.490;4.912;2022-07-29T03:00:59;18.30;92.40
40123;DHT22;25832;45.490;4.912;2022-07-29T03:03:29;18.30;93.00
40123;DHT22;25832;45.490;4.912;2022-07-29T03:05:56;18.30;93.40
40123;DHT22;25832;45.490;4.912;2022-07-29T03:08:23;18.30;93.60
40123;DHT22;25832;45.490;4.912;2022-07-29T03:10:50;18.30;93.80
40123;DHT22;25832;45.490;4.912;2022-07-29T03:13:17;18.30;93.90
40123;DHT22;25832;45.490;4.912;2022-07-29T03:15:46;18.20;93.90
40123;DHT22;25832;45.490;4.912;2022-07-29T03:18:13;18.20;94.20
40123;DHT22;25832;45.490;4.912;2022-07-29T03:20:40;18.10;94.60
40123;DHT22;25832;45.490;4.912;2022-07-29T03:23:06;18.10;94.60
40123;DHT22;25832;45.490;4.912;2022-07-29T03:25:31;18.00;95.00
40123;DHT22;25832;45.490;4.912;2022-07-29T03:27:57;18.00;95.10
40123;DHT22;25832;45.490;4.912;2022-07-29T03:30:23;17.90;95.60
40123;DHT22;25832;45.490;4.912;2022-07-29T03:32:50;17.70;95.80
40123;DHT22;25832;45.490;4.912;2022-07-29T03:35:16;17.60;96.00
40123;DHT22;25832;45.490;4.912;2022-07-29T03:37:42;17.60;95.90
40123;DHT22;25832;45.490;4.912;2022-07-29T03:40:10;17.60;95.80
40123;DHT22;25832;45.490;4.912;2022-07-29T03:42:39;17.60;96.00
40123;DHT22;25832;45.490;4.912;2022-07-29T03:45:07;17.60;95.90
40123;DHT22;25832;45.490;4.912;2022-07-29T03:47:39;17.60;95.90
40123;DHT22;25832;45.490;4.912;2022-07-29T03:50:08;17.60;96.00
40123;DHT22;25832;45.490;4.912;2022-07-29T03:52:34;17.60;96.10
40123;DHT22;25832;45.490;4.912;2022-07-29T03:55:01;17.60;96.20
40123;DHT22;25832;45.490;4.912;2022-07-29T03:57:28;17.60;96.40
40123;DHT22;25832;45.490;4.912;2022-07-29T03:59:55;17.60;96.30
40123;DHT22;25832;45.490;4.912;2022-07-29T04:02:21;17.60;96.50
40123;DHT22;25832;45.490;4.912;2022-07-29T04:04:48;17.60;96.20
40123;DHT22;25832;45.490;4.912;2022-07-29T04:07:14;17.60;96.10
40123;DHT22;25832;45.490;4.912;2022-07-29T04:09:41;17.70;96.10
40123;DHT22;25832;45.490;4.912;2022-07-29T04:12:07;17.70;95.80
40123;DHT22;25832;45.490;4.912;2022-07-29T04:14:34;17.70;95.90
40123;DHT22;25832;45.490;4.912;2022-07-29T04:17:03;17.80;95.70
40123;DHT22;25832;45.490;4.912;2022-07-29T04:19:29;17.80;96.10
40123;DHT22;25832;45.490;4.912;2022-07-29T04:21:56;17.80;96.10
40123;DHT22;25832;45.490;4.912;2022-07-29T04:24:21;17.80;96.20
40123;DHT22;25832;45.490;4.912;2022-07-29T04:26:47;17.90;96.00
40123;DHT22;25832;45.490;4.912;2022-07-29T04:29:13;17.90;95.80
40123;DHT22;25832;45.490;4.912;2022-07-29T04:31:40;17.90;96.00
40123;DHT22;25832;45.490;4.912;2022-07-29T04:34:06;17.90;95.80
40123;DHT22;25832;45.490;4.912;2022-07-29T04:36:31;17.90;95.90
40123;DHT22;25832;45.490;4.912;2022-07-29T04:38:57;18.00;95.80
40123;DHT22;25832;45.490;4.912;2022-07-29T04:41:23;18.00;96.10
40123;DHT22;25832;45.490;4.912;2022-07-29T04:43:49;18.00;95.90
40123;DHT22;25832;45.490;4.912;2022-07-29T04:46:15;18.00;96.20
40123;DHT22;25832;45.490;4.912;2022-07-29T04:48:41;18.10;96.90
40123;DHT22;25832;45.490;4.912;2022-07-29T04:51:06;18.10;97.10
40123;DHT22;25832;45.490;4.912;2022-07-29T04:53:32;18.10;97.10
40123;DHT22;25832;45.490;4.912;2022-07-29T04:55:58;18.10;97.30
40123;DHT22;25832;45.490;4.912;2022-07-29T04:58:23;18.10;97.50
40123;DHT22;25832;45.490;4.912;2022-07-29T05:00:50;18.10;97.80
40123;DHT22;25832;45.490;4.912;2022-07-29T05:03:16;18.10;98.40
40123;DHT22;25832;45.490;4.912;2022-07-29T05:05:42;18.00;98.20
40123;DHT22;25832;45.490;4.912;2022-07-29T05:08:08;18.10;98.10
40123;DHT22;25832;45.490;4.912;2022-07-29T05:10:34;18.10;97.90
40123;DHT22;25832;45.490;4.912;2022-07-29T05:13:04;18.10;98.30
40123;DHT22;25832;45.490;4.912;2022-07-29T05:15:31;18.10;98.10
40123;DHT22;25832;45.490;4.912;2022-07-29T05:17:57;18.10;98.00
40123;DHT22;25832;45.490;4.912;2022-07-29T05:20:22;18.20;98.20
40123;DHT22;25832;45.490;4.912;2022-07-29T05:22:54;18.30;98.30
40123;DHT22;25832;45.490;4.912;2022-07-29T05:25:20;18.40;97.90
40123;DHT22;25832;45.490;4.912;2022-07-29T05:27:45;18.50;98.20
40123;DHT22;25832;45.490;4.912;2022-07-29T05:30:11;18.60;98.10
40123;DHT22;25832;45.490;4.912;2022-07-29T05:32:37;18.70;98.10
40123;DHT22;25832;45.490;4.912;2022-07-29T05:35:03;18.80;97.50
40123;DHT22;25832;45.490;4.912;2022-07-29T05:37:28;18.80;97.40
40123;DHT22;25832;45.490;4.912;2022-07-29T05:39:54;19.00;98.00
40123;DHT22;25832;45.490;4.912;2022-07-29T05:42:20;19.00;97.70
40123;DHT22;25832;45.490;4.912;2022-07-29T05:44:45;19.10;97.90
40123;DHT22;25832;45.490;4.912;2022-07-29T05:47:13;19.20;97.90
40123;DHT22;25832;45.490;4.912;2022-07-29T05:49:38;19.30;97.90
40123;DHT22;25832;45.490;4.912;2022-07-29T05:52:04;19.40;97.60
40123;DHT22;25832;45.490;4.912;2022-07-29T05:54:30;19.50;97.40
40123;DHT22;25832;45.490;4.912;2022-07-29T05:56:56;19.60;97.00
40123;DHT22;25832;45.490;4.912;2022-07-29T05:59:21;19.60;97.00
40123;DHT22;25832;45.490;4.912;2022-07-29T06:01:47;19.60;97.10
40123;DHT22;25832;45.490;4.912;2022-07-29T06:04:13;19.70;96.40
40123;DHT22;25832;45.490;4.912;2022-07-29T06:06:39;19.70;95.90
40123;DHT22;25832;45.490;4.912;2022-07-29T06:09:04;19.70;95.90
40123;DHT22;25832;45.490;4.912;2022-07-29T06:11:30;19.80;96.10
40123;DHT22;25832;45.490;4.912;2022-07-29T06:13:55;19.80;96.10
40123;DHT22;25832;45.490;4.912;2022-07-29T06:16:21;19.90;96.00
40123;DHT22;25832;45.490;4.912;2022-07-29T06:18:47;19.90;96.40
40123;DHT22;25832;45.490;4.912;2022-07-29T06:21:12;19.90;96.90
40123;DHT22;25832;45.490;4.912;2022-07-29T06:23:39;20.00;96.40
40123;DHT22;25832;45.490;4.912;2022-07-29T06:26:05;20.10;95.60
40123;DHT22;25832;45.490;4.912;2022-07-29T06:28:31;20.20;93.90
40123;DHT22;25832;45.490;4.912;2022-07-29T06:30:57;20.20;92.50
40123;DHT22;25832;45.490;4.912;2022-07-29T06:33:23;20.40;93.40
40123;DHT22;25832;45.490;4.912;2022-07-29T06:35:48;20.40;92.10
40123;DHT22;25832;45.490;4.912;2022-07-29T06:38:14;20.50;92.10
40123;DHT22;25832;45.490;4.912;2022-07-29T06:40:44;20.50;92.30
40123;DHT22;25832;45.490;4.912;2022-07-29T06:43:26;20.50;92.50
40123;DHT22;25832;45.490;4.912;2022-07-29T06:45:52;20.60;94.50
40123;DHT22;25832;45.490;4.912;2022-07-29T06:48:18;20.60;94.30
40123;DHT22;25832;45.490;4.912;2022-07-29T06:50:43;20.70;94.00
40123;DHT22;25832;45.490;4.912;2022-07-29T06:53:09;20.60;93.90
40123;DHT22;25832;45.490;4.912;2022-07-29T06:55:34;20.60;94.60
40123;DHT22;25832;45.490;4.912;2022-07-29T06:58:02;20.60;94.80
40123;DHT22;25832;45.490;4.912;2022-07-29T07:00:28;20.50;94.50
40123;DHT22;25832;45.490;4.912;2022-07-29T07:02:53;20.50;94.70
40123;DHT22;25832;45.490;4.912;2022-07-29T07:05:19;20.50;94.80
40123;DHT22;25832;45.490;4.912;2022-07-29T07:07:44;20.50;94.80
40123;DHT22;25832;45.490;4.912;2022-07-29T07:10:10;20.50;95.00
40123;DHT22;25832;45.490;4.912;2022-07-29T07:12:36;20.50;95.00
40123;DHT22;25832;45.490;4.912;2022-07-29T07:15:02;20.60;94.60
40123;DHT22;25832;45.490;4.912;2022-07-29T07:17:28;20.60;94.20
40123;DHT22;25832;45.490;4.912;2022-07-29T07:19:54;20.70;92.60
40123;DHT22;25832;45.490;4.912;2022-07-29T07:22:19;20.60;92.40
40123;DHT22;25832;45.490;4.912;2022-07-29T07:24:45;20.60;92.80
40123;DHT22;25832;45.490;4.912;2022-07-29T07:27:11;20.70;94.40
40123;DHT22;25832;45.490;4.912;2022-07-29T07:29:36;20.70;94.60
40123;DHT22;25832;45.490;4.912;2022-07-29T07:32:06;20.70;94.10
40123;DHT22;25832;45.490;4.912;2022-07-29T07:34:32;20.70;94.50
40123;DHT22;25832;45.490;4.912;2022-07-29T07:36:58;20.60;94.80
40123;DHT22;25832;45.490;4.912;2022-07-29T07:39:23;20.60;94.60
40123;DHT22;25832;45.490;4.912;2022-07-29T07:41:51;20.70;94.30
40123;DHT22;25832;45.490;4.912;2022-07-29T07:44:17;20.70;94.20
40123;DHT22;25832;45.490;4.912;2022-07-29T07:46:43;20.80;93.90
40123;DHT22;25832;45.490;4.912;2022-07-29T07:49:10;20.80;93.90
40123;DHT22;25832;45.490;4.912;2022-07-29T07:51:36;20.90;93.50
40123;DHT22;25832;45.490;4.912;2022-07-29T07:54:02;20.90;93.30
40123;DHT22;25832;45.490;4.912;2022-07-29T07:56:27;21.00;92.60
40123;DHT22;25832;45.490;4.912;2022-07-29T07:58:53;21.10;91.90
40123;DHT22;25832;45.490;4.912;2022-07-29T08:01:19;21.20;91.90
40123;DHT22;25832;45.490;4.912;2022-07-29T08:03:48;21.20;91.80
40123;DHT22;25832;45.490;4.912;2022-07-29T08:06:14;21.40;91.00
40123;DHT22;25832;45.490;4.912;2022-07-29T08:08:40;21.40;91.00
40123;DHT22;25832;45.490;4.912;2022-07-29T08:11:06;21.40;90.70
40123;DHT22;25832;45.490;4.912;2022-07-29T08:13:32;21.50;90.40
40123;DHT22;25832;45.490;4.912;2022-07-29T08:15:58;21.50;90.10
40123;DHT22;25832;45.490;4.912;2022-07-29T08:18:36;21.50;90.10
40123;DHT22;25832;45.490;4.912;2022-07-29T08:21:02;21.50;90.00
40123;DHT22;25832;45.490;4.912;2022-07-29T08:23:27;21.60;90.40
40123;DHT22;25832;45.490;4.912;2022-07-29T08:26:00;21.60;91.30
40123;DHT22;25832;45.490;4.912;2022-07-29T08:28:26;21.40;91.90
40123;DHT22;25832;45.490;4.912;2022-07-29T08:30:52;21.30;92.40
40123;DHT22;25832;45.490;4.912;2022-07-29T08:33:17;21.20;92.90
40123;DHT22;25832;45.490;4.912;2022-07-29T08:35:43;21.00;93.10
40123;DHT22;25832;45.490;4.912;2022-07-29T08:38:09;20.90;93.60
40123;DHT22;25832;45.490;4.912;2022-07-29T08:40:35;20.80;95.00
40123;DHT22;25832;45.490;4.912;2022-07-29T08:43:05;20.80;95.90
40123;DHT22;25832;45.490;4.912;2022-07-29T08:45:45;20.60;97.00
40123;DHT22;25832;45.490;4.912;2022-07-29T08:48:19;20.40;97.90
40123;DHT22;25832;45.490;4.912;2022-07-29T08:50:46;20.20;99.00
40123;DHT22;25832;45.490;4.912;2022-07-29T08:53:15;19.90;99.80
40123;DHT22;25832;45.490;4.912;2022-07-29T08:55:43;19.80;99.90
40123;DHT22;25832;45.490;4.912;2022-07-29T08:58:09;19.60;99.90
40123;DHT22;25832;45.490;4.912;2022-07-29T09:00:37;19.40;99.90
40123;DHT22;25832;45.490;4.912;2022-07-29T09:03:06;19.30;99.90
40123;DHT22;25832;45.490;4.912;2022-07-29T09:05:34;19.10;99.90
40123;DHT22;25832;45.490;4.912;2022-07-29T09:08:01;19.00;99.90
40123;DHT22;25832;45.490;4.912;2022-07-29T09:10:27;18.90;99.90
40123;DHT22;25832;45.490;4.912;2022-07-29T09:12:54;18.80;99.90
40123;DHT22;25832;45.490;4.912;2022-07-29T09:15:20;18.70;99.90
40123;DHT22;25832;45.490;4.912;2022-07-29T09:17:48;18.70;99.90
40123;DHT22;25832;45.490;4.912;2022-07-29T09:20:19;18.70;99.90
40123;DHT22;25832;45.490;4.912;2022-07-29T09:22:45;18.60;99.90
40123;DHT22;25832;45.490;4.912;2022-07-29T09:28:06;18.60;99.90
40123;DHT22;25832;45.490;4.912;2022-07-29T09:30:32;18.60;99.90
40123;DHT22;25832;45.490;4.912;2022-07-29T09:33:00;18.60;99.90
40123;DHT22;25832;45.490;4.912;2022-07-29T09:35:29;18.70;99.90
40123;DHT22;25832;45.490;4.912;2022-07-29T09:37:56;18.60;99.90
40123;DHT22;25832;45.490;4.912;2022-07-29T09:40:28;18.70;99.90
40123;DHT22;25832;45.490;4.912;2022-07-29T09:42:54;18.80;99.90
40123;DHT22;25832;45.490;4.912;2022-07-29T09:45:31;19.00;99.90
40123;DHT22;25832;45.490;4.912;2022-07-29T09:47:57;19.00;99.90
40123;DHT22;25832;45.490;4.912;2022-07-29T09:50:42;19.10;99.90
40123;DHT22;25832;45.490;4.912;2022-07-29T09:53:09;19.20;99.90
40123;DHT22;25832;45.490;4.912;2022-07-29T09:55:51;19.20;99.90
40123;DHT22;25832;45.490;4.912;2022-07-29T09:58:21;19.40;99.90
40123;DHT22;25832;45.490;4.912;2022-07-29T10:00:48;19.50;99.90
40123;DHT22;25832;45.490;4.912;2022-07-29T10:03:15;19.50;99.90
40123;DHT22;25832;45.490;4.912;2022-07-29T10:05:42;19.60;99.90
40123;DHT22;25832;45.490;4.912;2022-07-29T10:08:09;19.60;99.90
40123;DHT22;25832;45.490;4.912;2022-07-29T10:10:39;19.70;99.90
40123;DHT22;25832;45.490;4.912;2022-07-29T10:13:08;19.80;99.90
40123;DHT22;25832;45.490;4.912;2022-07-29T10:15:36;19.80;99.90
40123;DHT22;25832;45.490;4.912;2022-07-29T10:18:05;19.90;99.90
40123;DHT22;25832;45.490;4.912;2022-07-29T10:20:31;19.90;99.90
40123;DHT22;25832;45.490;4.912;2022-07-29T10:22:57;20.00;99.90
40123;DHT22;25832;45.490;4.912;2022-07-29T10:25:24;20.20;99.90
40123;DHT22;25832;45.490;4.912;2022-07-29T10:27:50;20.20;99.90
40123;DHT22;25832;45.490;4.912;2022-07-29T10:30:17;20.30;99.90
40123;DHT22;25832;45.490;4.912;2022-07-29T10:43:41;20.80;99.90
40123;DHT22;25832;45.490;4.912;2022-07-29T10:46:08;20.90;99.90
40123;DHT22;25832;45.490;4.912;2022-07-29T10:48:34;21.00;99.90
40123;DHT22;25832;45.490;4.912;2022-07-29T10:56:32;21.80;99.90
40123;DHT22;25832;45.490;4.912;2022-07-29T11:01:48;22.30;99.90
40123;DHT22;25832;45.490;4.912;2022-07-29T11:07:11;22.80;99.90
40123;DHT22;25832;45.490;4.912;2022-07-29T11:09:38;23.00;99.90
40123;DHT22;25832;45.490;4.912;2022-07-29T11:15:00;23.50;99.10
40123;DHT22;25832;45.490;4.912;2022-07-29T11:17:28;23.80;98.60
40123;DHT22;25832;45.490;4.912;2022-07-29T11:22:57;24.40;97.00
40123;DHT22;25832;45.490;4.912;2022-07-29T11:25:23;24.60;96.30
40123;DHT22;25832;45.490;4.912;2022-07-29T11:27:49;24.70;96.20
40123;DHT22;25832;45.490;4.912;2022-07-29T11:30:17;24.90;95.50
40123;DHT22;25832;45.490;4.912;2022-07-29T11:32:44;25.10;94.70
40123;DHT22;25832;45.490;4.912;2022-07-29T11:35:17;25.40;95.70
40123;DHT22;25832;45.490;4.912;2022-07-29T11:37:43;25.60;94.00
40123;DHT22;25832;45.490;4.912;2022-07-29T11:40:11;25.80;93.70
40123;DHT22;25832;45.490;4.912;2022-07-29T11:42:42;26.00;92.00
40123;DHT22;25832;45.490;4.912;2022-07-29T11:45:12;26.20;91.90
40123;DHT22;25832;45.490;4.912;2022-07-29T11:50:17;26.20;91.70
40123;DHT22;25832;45.490;4.912;2022-07-29T11:52:51;26.30;90.90
40123;DHT22;25832;45.490;4.912;2022-07-29T11:55:19;26.30;90.50
40123;DHT22;25832;45.490;4.912;2022-07-29T11:57:56;26.40;91.00
40123;DHT22;25832;45.490;4.912;2022-07-29T12:00:40;26.50;90.20
40123;DHT22;25832;45.490;4.912;2022-07-29T12:03:10;26.70;90.00
40123;DHT22;25832;45.490;4.912;2022-07-29T12:05:43;26.90;90.10
40123;DHT22;25832;45.490;4.912;2022-07-29T12:08:16;27.10;87.00
40123;DHT22;25832;45.490;4.912;2022-07-29T12:10:45;27.20;87.40
40123;DHT22;25832;45.490;4.912;2022-07-29T12:13:13;27.40;88.00
40123;DHT22;25832;45.490;4.912;2022-07-29T12:15:40;27.30;86.10
40123;DHT22;25832;45.490;4.912;2022-07-29T12:18:10;27.10;83.90
40123;DHT22;25832;45.490;4.912;2022-07-29T12:20:36;26.70;85.40
40123;DHT22;25832;45.490;4.912;2022-07-29T12:23:06;26.30;85.90
40123;DHT22;25832;45.490;4.912;2022-07-29T12:25:33;26.20;86.70
40123;DHT22;25832;45.490;4.912;2022-07-29T12:28:00;26.20;84.50
40123;DHT22;25832;45.490;4.912;2022-07-29T12:30:35;26.30;84.80
40123;DHT22;25832;45.490;4.912;2022-07-29T12:33:13;26.40;85.30
40123;DHT22;25832;45.490;4.912;2022-07-29T12:35:41;26.50;83.40
40123;DHT22;25832;45.490;4.912;2022-07-29T12:38:09;26.70;82.90
40123;DHT22;25832;45.490;4.912;2022-07-29T12:40:36;26.90;83.90
40123;DHT22;25832;45.490;4.912;2022-07-29T12:43:12;27.00;85.40
40123;DHT22;25832;45.490;4.912;2022-07-29T12:45:40;27.00;82.60
40123;DHT22;25832;45.490;4.912;2022-07-29T12:48:07;26.80;81.60
40123;DHT22;25832;45.490;4.912;2022-07-29T12:50:51;26.50;83.60
40123;DHT22;25832;45.490;4.912;2022-07-29T12:53:18;26.30;83.90
40123;DHT22;25832;45.490;4.912;2022-07-29T12:55:46;26.40;85.30
40123;DHT22;25832;45.490;4.912;2022-07-29T12:58:26;26.50;85.90
40123;DHT22;25832;45.490;4.912;2022-07-29T13:01:09;26.50;84.60
40123;DHT22;25832;45.490;4.912;2022-07-29T13:03:56;26.70;81.50
40123;DHT22;25832;45.490;4.912;2022-07-29T13:06:58;26.60;82.30
40123;DHT22;25832;45.490;4.912;2022-07-29T13:09:23;26.60;84.30
40123;DHT22;25832;45.490;4.912;2022-07-29T13:12:06;26.80;83.50
40123;DHT22;25832;45.490;4.912;2022-07-29T13:14:40;27.00;84.20
40123;DHT22;25832;45.490;4.912;2022-07-29T13:17:17;27.30;82.30
40123;DHT22;25832;45.490;4.912;2022-07-29T13:19:50;27.50;82.30
40123;DHT22;25832;45.490;4.912;2022-07-29T13:22:21;27.60;81.40
40123;DHT22;25832;45.490;4.912;2022-07-29T13:24:52;27.70;80.50
40123;DHT22;25832;45.490;4.912;2022-07-29T13:27:20;27.50;80.80
40123;DHT22;25832;45.490;4.912;2022-07-29T13:29:46;27.40;81.60
40123;DHT22;25832;45.490;4.912;2022-07-29T13:32:13;27.40;80.40
40123;DHT22;25832;45.490;4.912;2022-07-29T13:34:39;27.10;80.70
40123;DHT22;25832;45.490;4.912;2022-07-29T13:37:06;27.00;81.70
40123;DHT22;25832;45.490;4.912;2022-07-29T13:39:31;26.80;82.10
40123;DHT22;25832;45.490;4.912;2022-07-29T13:41:57;26.50;81.00
40123;DHT22;25832;45.490;4.912;2022-07-29T13:44:23;26.20;82.10
40123;DHT22;25832;45.490;4.912;2022-07-29T13:46:49;26.10;82.00
40123;DHT22;25832;45.490;4.912;2022-07-29T13:49:15;26.10;82.70
40123;DHT22;25832;45.490;4.912;2022-07-29T13:51:41;26.30;83.10
40123;DHT22;25832;45.490;4.912;2022-07-29T13:54:06;26.60;82.30
40123;DHT22;25832;45.490;4.912;2022-07-29T13:56:32;26.90;81.70
40123;DHT22;25832;45.490;4.912;2022-07-29T13:58:57;27.00;81.20
40123;DHT22;25832;45.490;4.912;2022-07-29T14:01:24;27.10;80.20
40123;DHT22;25832;45.490;4.912;2022-07-29T14:03:50;27.10;81.90
40123;DHT22;25832;45.490;4.912;2022-07-29T14:06:15;27.20;80.00
40123;DHT22;25832;45.490;4.912;2022-07-29T14:08:41;27.20;79.70
40123;DHT22;25832;45.490;4.912;2022-07-29T14:11:07;27.40;80.00
40123;DHT22;25832;45.490;4.912;2022-07-29T14:13:32;27.50;78.40
40123;DHT22;25832;45.490;4.912;2022-07-29T14:15:58;27.40;79.10
40123;DHT22;25832;45.490;4.912;2022-07-29T14:18:24;27.40;79.10
40123;DHT22;25832;45.490;4.912;2022-07-29T14:20:49;27.50;79.80
40123;DHT22;25832;45.490;4.912;2022-07-29T14:23:16;27.60;79.20
40123;DHT22;25832;45.490;4.912;2022-07-29T14:25:42;28.00;80.00
40123;DHT22;25832;45.490;4.912;2022-07-29T14:28:08;28.20;77.80
40123;DHT22;25832;45.490;4.912;2022-07-29T14:30:33;28.20;76.90
40123;DHT22;25832;45.490;4.912;2022-07-29T14:32:59;28.20;76.80
40123;DHT22;25832;45.490;4.912;2022-07-29T14:35:25;28.30;76.80
40123;DHT22;25832;45.490;4.912;2022-07-29T14:37:50;28.50;75.80
40123;DHT22;25832;45.490;4.912;2022-07-29T14:40:16;28.30;76.70
40123;DHT22;25832;45.490;4.912;2022-07-29T14:42:41;28.10;76.50
40123;DHT22;25832;45.490;4.912;2022-07-29T14:45:08;28.20;77.40
40123;DHT22;25832;45.490;4.912;2022-07-29T14:47:35;28.30;76.00
40123;DHT22;25832;45.490;4.912;2022-07-29T14:50:01;28.40;75.90
40123;DHT22;25832;45.490;4.912;2022-07-29T14:52:27;28.40;76.10
40123;DHT22;25832;45.490;4.912;2022-07-29T14:54:52;28.10;76.50
40123;DHT22;25832;45.490;4.912;2022-07-29T14:57:18;28.10;77.70
40123;DHT22;25832;45.490;4.912;2022-07-29T14:59:43;28.10;77.20
40123;DHT22;25832;45.490;4.912;2022-07-29T15:02:09;28.10;77.90
40123;DHT22;25832;45.490;4.912;2022-07-29T15:04:35;27.90;77.80
40123;DHT22;25832;45.490;4.912;2022-07-29T15:07:00;27.90;78.20
40123;DHT22;25832;45.490;4.912;2022-07-29T15:09:26;28.00;78.30
40123;DHT22;25832;45.490;4.912;2022-07-29T15:11:52;28.30;78.10
40123;DHT22;25832;45.490;4.912;2022-07-29T15:14:17;28.50;77.00
40123;DHT22;25832;45.490;4.912;2022-07-29T15:16:43;28.90;75.20
40123;DHT22;25832;45.490;4.912;2022-07-29T15:19:09;28.80;74.80
40123;DHT22;25832;45.490;4.912;2022-07-29T15:21:35;28.90;74.30
40123;DHT22;25832;45.490;4.912;2022-07-29T15:24:01;28.80;74.90
40123;DHT22;25832;45.490;4.912;2022-07-29T15:26:27;28.80;74.40
40123;DHT22;25832;45.490;4.912;2022-07-29T15:28:53;28.70;74.00
40123;DHT22;25832;45.490;4.912;2022-07-29T15:31:20;28.60;72.20
40123;DHT22;25832;45.490;4.912;2022-07-29T15:33:46;28.20;72.60
40123;DHT22;25832;45.490;4.912;2022-07-29T15:36:12;28.00;71.70
40123;DHT22;25832;45.490;4.912;2022-07-29T15:38:38;27.90;72.40
40123;DHT22;25832;45.490;4.912;2022-07-29T15:41:06;27.90;70.40
40123;DHT22;25832;45.490;4.912;2022-07-29T15:43:32;27.90;71.80
40123;DHT22;25832;45.490;4.912;2022-07-29T15:46:00;27.90;70.20
40123;DHT22;25832;45.490;4.912;2022-07-29T15:48:44;27.90;71.70
40123;DHT22;25832;45.490;4.912;2022-07-29T15:51:10;27.90;71.50
40123;DHT22;25832;45.490;4.912;2022-07-29T15:53:36;27.90;71.00
40123;DHT22;25832;45.490;4.912;2022-07-29T15:56:02;27.90;70.70
40123;DHT22;25832;45.490;4.912;2022-07-29T15:58:28;27.90;71.30
40123;DHT22;25832;45.490;4.912;2022-07-29T16:00:53;27.90;69.80
40123;DHT22;25832;45.490;4.912;2022-07-29T16:03:19;27.70;71.10
40123;DHT22;25832;45.490;4.912;2022-07-29T16:05:45;27.60;70.80
40123;DHT22;25832;45.490;4.912;2022-07-29T16:08:11;27.40;70.70
40123;DHT22;25832;45.490;4.912;2022-07-29T16:10:37;27.40;71.20
40123;DHT22;25832;45.490;4.912;2022-07-29T16:13:02;27.40;71.00
40123;DHT22;25832;45.490;4.912;2022-07-29T16:15:28;27.40;70.70
40123;DHT22;25832;45.490;4.912;2022-07-29T16:17:54;27.40;70.90